sensor_id;sensor_type;location;lat;lon;timestamp;P1;durP1;ratioP1;P2;durP2;ratioP2
12896;SDS011;6516;35.028;32.372;2023-01-15T00:01:45;14.82;;;7.18;;
12896;SDS011;6516;35.028;32.372;2023-01-15T00:04:13;13.50;;;7.00;;
12896;SDS011;6516;35.028;32.372;2023-01-15T00:06:42;13.85;;;7.40;;
12896;SDS011;6516;35.028;32.372;2023-01-15T00:09:12;14.65;;;6.95;;
12896;SDS011;6516;35.028;32.372;2023-01-15T00:11:41;11.82;;;6.20;;
12896;SDS011;6516;35.028;32.372;2023-01-15T00:14:09;11.63;;;6.45;;
12896;SDS011;6516;35.028;32.372;2023-01-15T00:16:38;13.17;;;6.87;;
12896;SDS011;6516;35.028;32.372;2023-01-15T00:19:08;13.30;;;6.15;;
12896;SDS011;6516;35.028;32.372;2023-01-15T00:21:37;13.02;;;6.40;;
12896;SDS011;6516;35.028;32.372;2023-01-15T00:24:05;13.15;;;6.30;;
12896;SDS011;6516;35.028;32.372;2023-01-15T00:26:50;12.32;;;6.13;;
12896;SDS011;6516;35.028;32.372;2023-01-15T00:29:35;13.90;;;6.20;;
12896;SDS011;6516;35.028;32.372;2023-01-15T00:32:03;12.25;;;6.30;;
12896;SDS011;6516;35.028;32.372;2023-01-15T00:34:35;15.88;;;6.82;;
12896;SDS011;6516;35.028;32.372;2023-01-15T00:37:03;13.10;;;6.25;;
12896;SDS011;6516;35.028;32.372;2023-01-15T00:39:31;11.55;;;6.20;;
12896;SDS011;6516;35.028;32.372;2023-01-15T00:41:59;15.07;;;7.00;;
12896;SDS011;6516;35.028;32.372;2023-01-15T00:44:27;12.98;;;7.07;;
12896;SDS011;6516;35.028;32.372;2023-01-15T00:46:57;12.23;;;6.55;;
12896;SDS011;6516;35.028;32.372;2023-01-15T00:49:25;10.00;;;5.45;;
12896;SDS011;6516;35.028;32.372;2023-01-15T00:51:54;12.38;;;5.63;;
12896;SDS011;6516;35.028;32.372;2023-01-15T00:54:22;11.27;;;5.60;;
12896;SDS011;6516;35.028;32.372;2023-01-15T00:56:50;10.07;;;5.97;;
12896;SDS011;6516;35.028;32.372;2023-01-15T00:59:17;10.10;;;5.60;;
12896;SDS011;6516;35.028;32.372;2023-01-15T01:01:45;13.32;;;5.50;;
12896;SDS011;6516;35.028;32.372;2023-01-15T01:04:13;10.88;;;5.30;;
12896;SDS011;6516;35.028;32.372;2023-01-15T01:06:40;10.67;;;5.13;;
12896;SDS011;6516;35.028;32.372;2023-01-15T01:11:40;11.57;;;4.68;;
12896;SDS011;6516;35.028;32.372;2023-01-15T01:14:09;8.20;;;4.63;;
12896;SDS011;6516;35.028;32.372;2023-01-15T01:16:38;10.15;;;5.18;;
12896;SDS011;6516;35.028;32.372;2023-01-15T01:19:08;8.80;;;4.90;;
12896;SDS011;6516;35.028;32.372;2023-01-15T01:21:38;8.23;;;4.63;;
12896;SDS011;6516;35.028;32.372;2023-01-15T01:24:08;10.18;;;5.13;;
12896;SDS011;6516;35.028;32.372;2023-01-15T01:26:39;9.18;;;4.35;;
12896;SDS011;6516;35.028;32.372;2023-01-15T01:29:10;6.50;;;3.67;;
12896;SDS011;6516;35.028;32.372;2023-01-15T01:31:38;8.63;;;3.67;;
12896;SDS011;6516;35.028;32.372;2023-01-15T01:34:06;6.50;;;3.42;;
12896;SDS011;6516;35.028;32.372;2023-01-15T01:36:36;7.57;;;3.45;;
12896;SDS011;6516;35.028;32.372;2023-01-15T01:39:06;10.48;;;4.15;;
12896;SDS011;6516;35.028;32.372;2023-01-15T01:41:40;8.70;;;4.35;;
12896;SDS011;6516;35.028;32.372;2023-01-15T01:47:26;7.15;;;4.00;;
12896;SDS011;6516;35.028;32.372;2023-01-15T01:49:58;7.88;;;4.15;;
12896;SDS011;6516;35.028;32.372;2023-01-15T01:52:30;7.93;;;4.22;;
12896;SDS011;6516;35.028;32.372;2023-01-15T01:55:04;7.60;;;4.00;;
12896;SDS011;6516;35.028;32.372;2023-01-15T01:57:35;7.20;;;4.00;;
12896;SDS011;6516;35.028;32.372;2023-01-15T02:00:05;9.70;;;3.90;;
12896;SDS011;6516;35.028;32.372;2023-01-15T02:02:35;9.98;;;4.07;;
12896;SDS011;6516;35.028;32.372;2023-01-15T02:05:04;7.78;;;3.80;;
12896;SDS011;6516;35.028;32.372;2023-01-15T02:07:34;8.70;;;4.03;;
12896;SDS011;6516;35.028;32.372;2023-01-15T02:10:02;6.83;;;4.10;;
12896;SDS011;6516;35.028;32.372;2023-01-15T02:12:32;6.97;;;3.78;;
12896;SDS011;6516;35.028;32.372;2023-01-15T02:15:06;8.10;;;4.15;;
12896;SDS011;6516;35.028;32.372;2023-01-15T02:17:42;9.55;;;3.88;;
12896;SDS011;6516;35.028;32.372;2023-01-15T02:20:21;9.85;;;3.72;;
12896;SDS011;6516;35.028;32.372;2023-01-15T02:26:06;9.85;;;3.55;;
12896;SDS011;6516;35.028;32.372;2023-01-15T02:29:05;6.82;;;3.45;;
12896;SDS011;6516;35.028;32.372;2023-01-15T02:31:39;8.60;;;3.78;;
12896;SDS011;6516;35.028;32.372;2023-01-15T02:34:11;7.45;;;3.70;;
12896;SDS011;6516;35.028;32.372;2023-01-15T02:36:43;6.80;;;3.63;;
12896;SDS011;6516;35.028;32.372;2023-01-15T02:39:17;6.97;;;3.47;;
12896;SDS011;6516;35.028;32.372;2023-01-15T02:41:50;7.25;;;3.67;;
12896;SDS011;6516;35.028;32.372;2023-01-15T02:44:20;8.43;;;3.40;;
12896;SDS011;6516;35.028;32.372;2023-01-15T02:46:50;5.93;;;3.17;;
12896;SDS011;6516;35.028;32.372;2023-01-15T02:49:19;6.47;;;3.43;;
12896;SDS011;6516;35.028;32.372;2023-01-15T02:51:50;6.93;;;3.40;;
12896;SDS011;6516;35.028;32.372;2023-01-15T02:54:25;6.90;;;3.80;;
12896;SDS011;6516;35.028;32.372;2023-01-15T02:57:03;7.15;;;3.47;;
12896;SDS011;6516;35.028;32.372;2023-01-15T02:59:33;6.88;;;3.40;;
12896;SDS011;6516;35.028;32.372;2023-01-15T03:02:05;6.50;;;3.30;;
12896;SDS011;6516;35.028;32.372;2023-01-15T03:04:39;6.00;;;3.38;;
12896;SDS011;6516;35.028;32.372;2023-01-15T03:07:14;6.95;;;3.47;;
12896;SDS011;6516;35.028;32.372;2023-01-15T03:09:47;6.65;;;3.10;;
12896;SDS011;6516;35.028;32.372;2023-01-15T03:12:19;5.20;;;2.78;;
12896;SDS011;6516;35.028;32.372;2023-01-15T03:14:55;6.03;;;3.20;;
12896;SDS011;6516;35.028;32.372;2023-01-15T03:17:34;5.25;;;2.80;;
12896;SDS011;6516;35.028;32.372;2023-01-15T03:20:05;5.68;;;3.20;;
12896;SDS011;6516;35.028;32.372;2023-01-15T03:22:39;5.63;;;2.90;;
12896;SDS011;6516;35.028;32.372;2023-01-15T03:25:13;5.65;;;3.00;;
12896;SDS011;6516;35.028;32.372;2023-01-15T03:27:48;5.47;;;2.93;;
12896;SDS011;6516;35.028;32.372;2023-01-15T03:30:21;5.88;;;3.05;;
12896;SDS011;6516;35.028;32.372;2023-01-15T03:32:50;5.82;;;3.20;;
12896;SDS011;6516;35.028;32.372;2023-01-15T03:35:39;6.57;;;3.40;;
12896;SDS011;6516;35.028;32.372;2023-01-15T03:38:13;6.35;;;3.10;;
12896;SDS011;6516;35.028;32.372;2023-01-15T03:40:47;7.07;;;3.20;;
12896;SDS011;6516;35.028;32.372;2023-01-15T03:43:28;5.85;;;3.10;;
12896;SDS011;6516;35.028;32.372;2023-01-15T03:46:19;6.75;;;3.08;;
12896;SDS011;6516;35.028;32.372;2023-01-15T03:49:18;5.35;;;3.13;;
12896;SDS011;6516;35.028;32.372;2023-01-15T03:51:58;6.05;;;2.92;;
12896;SDS011;6516;35.028;32.372;2023-01-15T03:54:32;6.50;;;2.83;;
12896;SDS011;6516;35.028;32.372;2023-01-15T03:57:11;5.70;;;3.03;;
12896;SDS011;6516;35.028;32.372;2023-01-15T03:59:48;6.40;;;2.83;;
12896;SDS011;6516;35.028;32.372;2023-01-15T04:02:19;6.45;;;3.03;;
12896;SDS011;6516;35.028;32.372;2023-01-15T04:04:50;6.47;;;3.30;;
12896;SDS011;6516;35.028;32.372;2023-01-15T04:07:20;6.80;;;3.30;;
12896;SDS011;6516;35.028;32.372;2023-01-15T04:09:49;5.85;;;2.80;;
12896;SDS011;6516;35.028;32.372;2023-01-15T04:12:17;6.55;;;3.15;;
12896;SDS011;6516;35.028;32.372;2023-01-15T04:14:45;6.57;;;2.88;;
12896;SDS011;6516;35.028;32.372;2023-01-15T04:17:14;6.25;;;3.40;;
12896;SDS011;6516;35.028;32.372;2023-01-15T04:19:42;7.07;;;2.90;;
12896;SDS011;6516;35.028;32.372;2023-01-15T04:22:10;7.28;;;2.72;;
12896;SDS011;6516;35.028;32.372;2023-01-15T04:24:38;7.18;;;2.97;;
12896;SDS011;6516;35.028;32.372;2023-01-15T04:27:05;8.82;;;3.00;;
12896;SDS011;6516;35.028;32.372;2023-01-15T04:29:33;7.22;;;2.70;;
12896;SDS011;6516;35.028;32.372;2023-01-15T04:32:02;6.30;;;2.70;;
12896;SDS011;6516;35.028;32.372;2023-01-15T04:34:30;5.07;;;2.63;;
12896;SDS011;6516;35.028;32.372;2023-01-15T04:37:00;5.40;;;2.63;;
12896;SDS011;6516;35.028;32.372;2023-01-15T04:39:28;5.18;;;2.67;;
12896;SDS011;6516;35.028;32.372;2023-01-15T04:41:55;4.80;;;2.55;;
12896;SDS011;6516;35.028;32.372;2023-01-15T04:44:40;5.30;;;2.87;;
12896;SDS011;6516;35.028;32.372;2023-01-15T04:47:10;5.55;;;2.80;;
12896;SDS011;6516;35.028;32.372;2023-01-15T04:49:37;5.00;;;2.60;;
12896;SDS011;6516;35.028;32.372;2023-01-15T04:52:05;4.88;;;2.42;;
12896;SDS011;6516;35.028;32.372;2023-01-15T04:54:33;5.53;;;2.88;;
12896;SDS011;6516;35.028;32.372;2023-01-15T04:57:01;7.67;;;2.93;;
12896;SDS011;6516;35.028;32.372;2023-01-15T04:59:29;5.13;;;2.63;;
12896;SDS011;6516;35.028;32.372;2023-01-15T05:01:56;5.95;;;3.33;;
12896;SDS011;6516;35.028;32.372;2023-01-15T05:04:26;5.88;;;2.90;;
12896;SDS011;6516;35.028;32.372;2023-01-15T05:06:53;5.00;;;2.70;;
12896;SDS011;6516;35.028;32.372;2023-01-15T05:09:21;4.93;;;2.50;;
12896;SDS011;6516;35.028;32.372;2023-01-15T05:11:49;5.13;;;2.78;;
12896;SDS011;6516;35.028;32.372;2023-01-15T05:14:17;4.47;;;2.17;;
12896;SDS011;6516;35.028;32.372;2023-01-15T05:16:45;4.55;;;2.60;;
12896;SDS011;6516;35.028;32.372;2023-01-15T05:19:12;5.60;;;2.28;;
12896;SDS011;6516;35.028;32.372;2023-01-15T05:21:42;6.00;;;2.43;;
12896;SDS011;6516;35.028;32.372;2023-01-15T05:24:12;4.32;;;2.13;;
12896;SDS011;6516;35.028;32.372;2023-01-15T05:26:42;4.57;;;2.35;;
12896;SDS011;6516;35.028;32.372;2023-01-15T05:29:10;4.28;;;2.05;;
12896;SDS011;6516;35.028;32.372;2023-01-15T05:31:39;4.88;;;2.00;;
12896;SDS011;6516;35.028;32.372;2023-01-15T05:34:09;4.67;;;2.00;;
12896;SDS011;6516;35.028;32.372;2023-01-15T05:36:38;4.25;;;2.00;;
12896;SDS011;6516;35.028;32.372;2023-01-15T05:39:07;4.40;;;2.10;;
12896;SDS011;6516;35.028;32.372;2023-01-15T05:41:35;4.25;;;2.00;;
12896;SDS011;6516;35.028;32.372;2023-01-15T05:44:16;4.57;;;2.20;;
12896;SDS011;6516;35.028;32.372;2023-01-15T05:46:47;4.70;;;2.33;;
12896;SDS011;6516;35.028;32.372;2023-01-15T05:49:17;4.57;;;2.28;;
12896;SDS011;6516;35.028;32.372;2023-01-15T05:51:47;4.40;;;2.08;;
12896;SDS011;6516;35.028;32.372;2023-01-15T05:54:18;5.28;;;2.10;;
12896;SDS011;6516;35.028;32.372;2023-01-15T05:56:47;4.63;;;2.30;;
12896;SDS011;6516;35.028;32.372;2023-01-15T05:59:15;4.53;;;2.00;;
12896;SDS011;6516;35.028;32.372;2023-01-15T06:01:44;4.53;;;2.10;;
12896;SDS011;6516;35.028;32.372;2023-01-15T06:04:12;4.00;;;1.90;;
12896;SDS011;6516;35.028;32.372;2023-01-15T06:06:42;4.20;;;1.80;;
12896;SDS011;6516;35.028;32.372;2023-01-15T06:09:10;3.95;;;1.98;;
12896;SDS011;6516;35.028;32.372;2023-01-15T06:11:39;4.00;;;1.80;;
12896;SDS011;6516;35.028;32.372;2023-01-15T06:14:07;4.65;;;1.90;;
12896;SDS011;6516;35.028;32.372;2023-01-15T06:16:36;4.82;;;1.90;;
12896;SDS011;6516;35.028;32.372;2023-01-15T06:19:05;4.22;;;1.83;;
12896;SDS011;6516;35.028;32.372;2023-01-15T06:21:34;4.20;;;1.90;;
12896;SDS011;6516;35.028;32.372;2023-01-15T06:24:02;5.70;;;2.40;;
12896;SDS011;6516;35.028;32.372;2023-01-15T06:26:30;4.40;;;2.22;;
12896;SDS011;6516;35.028;32.372;2023-01-15T06:29:00;4.90;;;2.20;;
12896;SDS011;6516;35.028;32.372;2023-01-15T06:31:27;4.43;;;2.08;;
12896;SDS011;6516;35.028;32.372;2023-01-15T06:33:56;4.25;;;2.00;;
12896;SDS011;6516;35.028;32.372;2023-01-15T06:36:25;4.20;;;2.00;;
12896;SDS011;6516;35.028;32.372;2023-01-15T06:38:54;4.72;;;2.17;;
12896;SDS011;6516;35.028;32.372;2023-01-15T06:41:23;5.30;;;2.00;;
12896;SDS011;6516;35.028;32.372;2023-01-15T06:44:11;4.22;;;2.08;;
12896;SDS011;6516;35.028;32.372;2023-01-15T06:47:00;4.30;;;2.00;;
12896;SDS011;6516;35.028;32.372;2023-01-15T06:49:48;4.10;;;1.80;;
12896;SDS011;6516;35.028;32.372;2023-01-15T06:52:18;3.95;;;1.70;;
12896;SDS011;6516;35.028;32.372;2023-01-15T06:54:46;4.30;;;1.90;;
12896;SDS011;6516;35.028;32.372;2023-01-15T06:57:14;4.22;;;1.80;;
12896;SDS011;6516;35.028;32.372;2023-01-15T06:59:44;4.18;;;1.90;;
12896;SDS011;6516;35.028;32.372;2023-01-15T07:02:12;3.97;;;1.80;;
12896;SDS011;6516;35.028;32.372;2023-01-15T07:04:40;4.00;;;1.67;;
12896;SDS011;6516;35.028;32.372;2023-01-15T07:07:07;3.75;;;1.80;;
12896;SDS011;6516;35.028;32.372;2023-01-15T07:09:35;3.63;;;1.60;;
12896;SDS011;6516;35.028;32.372;2023-01-15T07:12:03;4.00;;;2.00;;
12896;SDS011;6516;35.028;32.372;2023-01-15T07:14:31;4.83;;;2.00;;
12896;SDS011;6516;35.028;32.372;2023-01-15T07:17:00;4.00;;;1.90;;
12896;SDS011;6516;35.028;32.372;2023-01-15T07:19:28;3.83;;;1.88;;
12896;SDS011;6516;35.028;32.372;2023-01-15T07:21:56;4.00;;;1.75;;
12896;SDS011;6516;35.028;32.372;2023-01-15T07:24:24;4.53;;;2.40;;
12896;SDS011;6516;35.028;32.372;2023-01-15T07:26:52;4.57;;;2.00;;
12896;SDS011;6516;35.028;32.372;2023-01-15T07:29:19;4.32;;;2.40;;
12896;SDS011;6516;35.028;32.372;2023-01-15T07:31:48;4.78;;;2.50;;
12896;SDS011;6516;35.028;32.372;2023-01-15T07:34:17;4.75;;;2.40;;
12896;SDS011;6516;35.028;32.372;2023-01-15T07:36:45;4.68;;;2.30;;
12896;SDS011;6516;35.028;32.372;2023-01-15T07:39:14;4.50;;;2.43;;
12896;SDS011;6516;35.028;32.372;2023-01-15T07:41:42;4.85;;;2.17;;
12896;SDS011;6516;35.028;32.372;2023-01-15T07:44:26;5.57;;;2.58;;
12896;SDS011;6516;35.028;32.372;2023-01-15T07:47:14;4.40;;;2.30;;
12896;SDS011;6516;35.028;32.372;2023-01-15T07:50:05;4.45;;;2.30;;
12896;SDS011;6516;35.028;32.372;2023-01-15T07:52:35;4.47;;;2.10;;
12896;SDS011;6516;35.028;32.372;2023-01-15T07:55:03;4.40;;;2.40;;
12896;SDS011;6516;35.028;32.372;2023-01-15T07:57:32;4.60;;;2.70;;
12896;SDS011;6516;35.028;32.372;2023-01-15T08:00:03;5.20;;;2.55;;
12896;SDS011;6516;35.028;32.372;2023-01-15T08:02:32;4.68;;;2.70;;
12896;SDS011;6516;35.028;32.372;2023-01-15T08:05:00;4.97;;;2.80;;
12896;SDS011;6516;35.028;32.372;2023-01-15T08:07:31;4.40;;;2.50;;
12896;SDS011;6516;35.028;32.372;2023-01-15T08:10:03;5.28;;;2.83;;
12896;SDS011;6516;35.028;32.372;2023-01-15T08:12:32;5.45;;;2.80;;
12896;SDS011;6516;35.028;32.372;2023-01-15T08:15:17;5.40;;;2.80;;
12896;SDS011;6516;35.028;32.372;2023-01-15T08:17:45;5.03;;;2.80;;
12896;SDS011;6516;35.028;32.372;2023-01-15T08:20:15;4.63;;;2.47;;
12896;SDS011;6516;35.028;32.372;2023-01-15T08:22:46;5.20;;;2.80;;
12896;SDS011;6516;35.028;32.372;2023-01-15T08:25:14;5.10;;;2.60;;
12896;SDS011;6516;35.028;32.372;2023-01-15T08:27:44;4.95;;;2.83;;
12896;SDS011;6516;35.028;32.372;2023-01-15T08:30:14;5.07;;;2.70;;
12896;SDS011;6516;35.028;32.372;2023-01-15T08:32:43;4.93;;;2.40;;
12896;SDS011;6516;35.028;32.372;2023-01-15T08:35:11;4.60;;;2.78;;
12896;SDS011;6516;35.028;32.372;2023-01-15T08:37:40;5.28;;;2.58;;
12896;SDS011;6516;35.028;32.372;2023-01-15T08:40:10;5.63;;;3.08;;
12896;SDS011;6516;35.028;32.372;2023-01-15T08:42:38;6.47;;;2.80;;
12896;SDS011;6516;35.028;32.372;2023-01-15T08:45:07;5.88;;;3.10;;
12896;SDS011;6516;35.028;32.372;2023-01-15T08:47:36;7.38;;;2.70;;
12896;SDS011;6516;35.028;32.372;2023-01-15T08:50:04;8.40;;;3.08;;
12896;SDS011;6516;35.028;32.372;2023-01-15T08:52:35;5.57;;;2.70;;
12896;SDS011;6516;35.028;32.372;2023-01-15T08:55:04;6.60;;;2.83;;
12896;SDS011;6516;35.028;32.372;2023-01-15T08:57:34;6.22;;;3.00;;
12896;SDS011;6516;35.028;32.372;2023-01-15T09:00:03;6.32;;;3.30;;
12896;SDS011;6516;35.028;32.372;2023-01-15T09:02:32;5.25;;;2.80;;
12896;SDS011;6516;35.028;32.372;2023-01-15T09:05:00;5.82;;;3.38;;
12896;SDS011;6516;35.028;32.372;2023-01-15T09:07:28;8.00;;;4.57;;
12896;SDS011;6516;35.028;32.372;2023-01-15T09:09:56;6.93;;;4.47;;
12896;SDS011;6516;35.028;32.372;2023-01-15T09:12:23;6.63;;;3.70;;
12896;SDS011;6516;35.028;32.372;2023-01-15T09:14:53;6.43;;;3.78;;
12896;SDS011;6516;35.028;32.372;2023-01-15T09:17:20;7.15;;;3.75;;
12896;SDS011;6516;35.028;32.372;2023-01-15T09:19:48;5.93;;;3.60;;
12896;SDS011;6516;35.028;32.372;2023-01-15T09:22:16;5.93;;;3.40;;
12896;SDS011;6516;35.028;32.372;2023-01-15T09:24:43;5.90;;;3.63;;
12896;SDS011;6516;35.028;32.372;2023-01-15T09:27:12;7.18;;;3.88;;
12896;SDS011;6516;35.028;32.372;2023-01-15T09:29:40;6.90;;;3.63;;
12896;SDS011;6516;35.028;32.372;2023-01-15T09:32:09;6.97;;;4.03;;
12896;SDS011;6516;35.028;32.372;2023-01-15T09:34:37;6.90;;;3.72;;
12896;SDS011;6516;35.028;32.372;2023-01-15T09:37:05;6.20;;;3.72;;
12896;SDS011;6516;35.028;32.372;2023-01-15T09:39:32;7.53;;;4.30;;
12896;SDS011;6516;35.028;32.372;2023-01-15T09:42:04;7.28;;;3.97;;
12896;SDS011;6516;35.028;32.372;2023-01-15T09:44:54;6.40;;;3.47;;
12896;SDS011;6516;35.028;32.372;2023-01-15T09:47:42;9.75;;;4.10;;
12896;SDS011;6516;35.028;32.372;2023-01-15T09:50:32;9.40;;;4.60;;
12896;SDS011;6516;35.028;32.372;2023-01-15T09:53:21;7.70;;;4.10;;
12896;SDS011;6516;35.028;32.372;2023-01-15T09:56:03;9.32;;;4.43;;
12896;SDS011;6516;35.028;32.372;2023-01-15T09:58:32;8.13;;;4.40;;
12896;SDS011;6516;35.028;32.372;2023-01-15T10:01:03;8.68;;;4.20;;
12896;SDS011;6516;35.028;32.372;2023-01-15T10:03:33;8.43;;;4.18;;
12896;SDS011;6516;35.028;32.372;2023-01-15T10:06:10;8.68;;;4.40;;
12896;SDS011;6516;35.028;32.372;2023-01-15T10:08:42;10.63;;;4.28;;
12896;SDS011;6516;35.028;32.372;2023-01-15T10:11:27;8.47;;;4.00;;
12896;SDS011;6516;35.028;32.372;2023-01-15T10:14:22;7.55;;;3.80;;
12896;SDS011;6516;35.028;32.372;2023-01-15T10:17:05;7.70;;;3.88;;
12896;SDS011;6516;35.028;32.372;2023-01-15T10:20:00;8.50;;;3.80;;
12896;SDS011;6516;35.028;32.372;2023-01-15T10:22:41;7.38;;;3.90;;
12896;SDS011;6516;35.028;32.372;2023-01-15T10:25:26;7.37;;;4.10;;
12896;SDS011;6516;35.028;32.372;2023-01-15T10:28:02;10.23;;;4.30;;
12896;SDS011;6516;35.028;32.372;2023-01-15T10:30:46;7.75;;;4.38;;
12896;SDS011;6516;35.028;32.372;2023-01-15T10:33:23;7.57;;;4.15;;
12896;SDS011;6516;35.028;32.372;2023-01-15T10:36:23;6.78;;;3.75;;
12896;SDS011;6516;35.028;32.372;2023-01-15T10:39:00;7.23;;;4.30;;
12896;SDS011;6516;35.028;32.372;2023-01-15T10:41:51;7.45;;;4.20;;
12896;SDS011;6516;35.028;32.372;2023-01-15T10:44:38;8.93;;;4.20;;
12896;SDS011;6516;35.028;32.372;2023-01-15T10:47:14;7.75;;;4.38;;
12896;SDS011;6516;35.028;32.372;2023-01-15T10:49:46;10.10;;;5.03;;
12896;SDS011;6516;35.028;32.372;2023-01-15T10:52:21;10.57;;;4.70;;
12896;SDS011;6516;35.028;32.372;2023-01-15T10:54:53;9.05;;;5.00;;
12896;SDS011;6516;35.028;32.372;2023-01-15T10:57:34;9.23;;;5.00;;
12896;SDS011;6516;35.028;32.372;2023-01-15T11:00:13;8.05;;;4.70;;
12896;SDS011;6516;35.028;32.372;2023-01-15T11:02:42;10.02;;;5.15;;
12896;SDS011;6516;35.028;32.372;2023-01-15T11:05:15;8.83;;;4.93;;
12896;SDS011;6516;35.028;32.372;2023-01-15T11:07:46;9.77;;;5.18;;
12896;SDS011;6516;35.028;32.372;2023-01-15T11:10:17;8.55;;;4.68;;
12896;SDS011;6516;35.028;32.372;2023-01-15T11:12:48;9.32;;;5.30;;
12896;SDS011;6516;35.028;32.372;2023-01-15T11:15:36;10.18;;;5.80;;
12896;SDS011;6516;35.028;32.372;2023-01-15T11:18:23;9.47;;;5.33;;
12896;SDS011;6516;35.028;32.372;2023-01-15T11:21:11;9.77;;;5.43;;
12896;SDS011;6516;35.028;32.372;2023-01-15T11:23:43;10.18;;;5.40;;
12896;SDS011;6516;35.028;32.372;2023-01-15T11:26:15;9.00;;;5.20;;
12896;SDS011;6516;35.028;32.372;2023-01-15T11:28:45;9.38;;;4.90;;
12896;SDS011;6516;35.028;32.372;2023-01-15T11:31:14;7.67;;;4.50;;
12896;SDS011;6516;35.028;32.372;2023-01-15T11:33:43;8.55;;;4.50;;
12896;SDS011;6516;35.028;32.372;2023-01-15T11:36:24;8.25;;;4.05;;
12896;SDS011;6516;35.028;32.372;2023-01-15T11:38:55;8.55;;;4.40;;
12896;SDS011;6516;35.028;32.372;2023-01-15T11:41:26;8.80;;;4.25;;
12896;SDS011;6516;35.028;32.372;2023-01-15T11:44:16;8.10;;;4.00;;
12896;SDS011;6516;35.028;32.372;2023-01-15T11:47:02;10.30;;;3.80;;
12896;SDS011;6516;35.028;32.372;2023-01-15T11:49:53;6.68;;;4.00;;
12896;SDS011;6516;35.028;32.372;2023-01-15T11:52:40;7.20;;;3.65;;
12896;SDS011;6516;35.028;32.372;2023-01-15T11:55:13;6.72;;;3.40;;
12896;SDS011;6516;35.028;32.372;2023-01-15T11:57:44;7.93;;;2.80;;
12896;SDS011;6516;35.028;32.372;2023-01-15T12:00:18;9.88;;;3.40;;
12896;SDS011;6516;35.028;32.372;2023-01-15T12:02:48;8.02;;;3.13;;
12896;SDS011;6516;35.028;32.372;2023-01-15T12:05:21;6.70;;;2.58;;
12896;SDS011;6516;35.028;32.372;2023-01-15T12:07:52;7.43;;;2.88;;
12896;SDS011;6516;35.028;32.372;2023-01-15T12:10:26;9.57;;;3.10;;
12896;SDS011;6516;35.028;32.372;2023-01-15T12:13:13;8.30;;;3.42;;
12896;SDS011;6516;35.028;32.372;2023-01-15T12:15:52;8.25;;;3.05;;
12896;SDS011;6516;35.028;32.372;2023-01-15T12:21:28;15.65;;;4.30;;
12896;SDS011;6516;35.028;32.372;2023-01-15T12:27:43;13.30;;;5.22;;
12896;SDS011;6516;35.028;32.372;2023-01-15T12:30:26;10.77;;;4.28;;
12896;SDS011;6516;35.028;32.372;2023-01-15T12:33:22;11.57;;;4.05;;
12896;SDS011;6516;35.028;32.372;2023-01-15T12:36:02;18.42;;;5.22;;
12896;SDS011;6516;35.028;32.372;2023-01-15T12:38:40;12.93;;;5.40;;
12896;SDS011;6516;35.028;32.372;2023-01-15T12:41:15;14.63;;;5.18;;
12896;SDS011;6516;35.028;32.372;2023-01-15T12:43:52;9.75;;;4.63;;
12896;SDS011;6516;35.028;32.372;2023-01-15T12:46:41;12.95;;;4.30;;
12896;SDS011;6516;35.028;32.372;2023-01-15T12:49:14;13.23;;;4.40;;
12896;SDS011;6516;35.028;32.372;2023-01-15T12:51:55;8.53;;;3.93;;
12896;SDS011;6516;35.028;32.372;2023-01-15T12:54:34;13.35;;;4.45;;
12896;SDS011;6516;35.028;32.372;2023-01-15T12:57:12;18.10;;;5.45;;
12896;SDS011;6516;35.028;32.372;2023-01-15T12:59:47;18.80;;;6.10;;
12896;SDS011;6516;35.028;32.372;2023-01-15T13:02:26;13.07;;;5.63;;
12896;SDS011;6516;35.028;32.372;2023-01-15T13:05:06;16.67;;;5.20;;
12896;SDS011;6516;35.028;32.372;2023-01-15T13:07:44;23.02;;;5.38;;
12896;SDS011;6516;35.028;32.372;2023-01-15T13:10:21;11.30;;;4.43;;
12896;SDS011;6516;35.028;32.372;2023-01-15T13:12:52;13.93;;;4.10;;
12896;SDS011;6516;35.028;32.372;2023-01-15T13:15:24;10.90;;;3.97;;
12896;SDS011;6516;35.028;32.372;2023-01-15T13:17:58;11.80;;;3.93;;
12896;SDS011;6516;35.028;32.372;2023-01-15T13:20:39;13.32;;;4.68;;
12896;SDS011;6516;35.028;32.372;2023-01-15T13:23:17;18.38;;;5.47;;
12896;SDS011;6516;35.028;32.372;2023-01-15T13:26:04;13.75;;;5.07;;
12896;SDS011;6516;35.028;32.372;2023-01-15T13:28:51;15.55;;;4.80;;
12896;SDS011;6516;35.028;32.372;2023-01-15T13:34:25;8.07;;;3.67;;
12896;SDS011;6516;35.028;32.372;2023-01-15T13:37:02;13.40;;;3.75;;
12896;SDS011;6516;35.028;32.372;2023-01-15T13:39:37;11.80;;;3.72;;
12896;SDS011;6516;35.028;32.372;2023-01-15T13:42:12;12.00;;;4.25;;
12896;SDS011;6516;35.028;32.372;2023-01-15T13:45:00;15.47;;;3.97;;
12896;SDS011;6516;35.028;32.372;2023-01-15T13:47:36;12.05;;;3.83;;
12896;SDS011;6516;35.028;32.372;2023-01-15T13:50:12;14.68;;;4.70;;
12896;SDS011;6516;35.028;32.372;2023-01-15T13:52:44;12.73;;;3.88;;
12896;SDS011;6516;35.028;32.372;2023-01-15T13:55:30;12.18;;;3.40;;
12896;SDS011;6516;35.028;32.372;2023-01-15T13:58:00;9.30;;;2.80;;
12896;SDS011;6516;35.028;32.372;2023-01-15T14:00:29;8.88;;;3.30;;
12896;SDS011;6516;35.028;32.372;2023-01-15T14:03:02;10.57;;;3.72;;
12896;SDS011;6516;35.028;32.372;2023-01-15T14:05:53;8.48;;;3.50;;
12896;SDS011;6516;35.028;32.372;2023-01-15T14:08:24;9.85;;;3.13;;
12896;SDS011;6516;35.028;32.372;2023-01-15T14:10:53;8.57;;;2.60;;
12896;SDS011;6516;35.028;32.372;2023-01-15T14:13:43;6.88;;;2.33;;
12896;SDS011;6516;35.028;32.372;2023-01-15T14:16:34;4.78;;;1.90;;
12896;SDS011;6516;35.028;32.372;2023-01-15T14:25:24;3.60;;;1.40;;
12896;SDS011;6516;35.028;32.372;2023-01-15T14:28:22;3.47;;;1.30;;
12896;SDS011;6516;35.028;32.372;2023-01-15T14:34:13;4.35;;;2.00;;
12896;SDS011;6516;35.028;32.372;2023-01-15T14:36:50;5.25;;;1.85;;
12896;SDS011;6516;35.028;32.372;2023-01-15T14:39:25;4.93;;;1.87;;
12896;SDS011;6516;35.028;32.372;2023-01-15T14:42:00;4.25;;;1.65;;
12896;SDS011;6516;35.028;32.372;2023-01-15T14:44:57;5.10;;;2.00;;
12896;SDS011;6516;35.028;32.372;2023-01-15T14:47:30;6.43;;;2.70;;
12896;SDS011;6516;35.028;32.372;2023-01-15T14:50:26;7.28;;;2.50;;
12896;SDS011;6516;35.028;32.372;2023-01-15T14:53:03;8.57;;;2.80;;
12896;SDS011;6516;35.028;32.372;2023-01-15T14:55:45;6.60;;;2.60;;
12896;SDS011;6516;35.028;32.372;2023-01-15T14:58:16;13.35;;;5.93;;
12896;SDS011;6516;35.028;32.372;2023-01-15T15:00:58;13.07;;;5.75;;
12896;SDS011;6516;35.028;32.372;2023-01-15T15:03:40;14.68;;;6.55;;
12896;SDS011;6516;35.028;32.372;2023-01-15T15:06:17;13.60;;;6.73;;
12896;SDS011;6516;35.028;32.372;2023-01-15T15:08:47;11.30;;;6.15;;
12896;SDS011;6516;35.028;32.372;2023-01-15T15:11:20;14.63;;;6.72;;
12896;SDS011;6516;35.028;32.372;2023-01-15T15:14:10;9.48;;;5.63;;
12896;SDS011;6516;35.028;32.372;2023-01-15T15:16:42;9.65;;;6.13;;
12896;SDS011;6516;35.028;32.372;2023-01-15T15:19:15;8.87;;;3.67;;
12896;SDS011;6516;35.028;32.372;2023-01-15T15:21:51;7.13;;;3.50;;
12896;SDS011;6516;35.028;32.372;2023-01-15T15:24:23;6.20;;;3.47;;
12896;SDS011;6516;35.028;32.372;2023-01-15T15:26:55;6.90;;;3.42;;
12896;SDS011;6516;35.028;32.372;2023-01-15T15:29:23;7.07;;;3.78;;
12896;SDS011;6516;35.028;32.372;2023-01-15T15:31:51;5.80;;;3.20;;
12896;SDS011;6516;35.028;32.372;2023-01-15T15:34:23;6.53;;;3.22;;
12896;SDS011;6516;35.028;32.372;2023-01-15T15:36:56;9.10;;;3.90;;
12896;SDS011;6516;35.028;32.372;2023-01-15T15:39:33;7.22;;;4.03;;
12896;SDS011;6516;35.028;32.372;2023-01-15T15:42:14;6.93;;;3.60;;
12896;SDS011;6516;35.028;32.372;2023-01-15T15:45:10;6.70;;;3.50;;
12896;SDS011;6516;35.028;32.372;2023-01-15T15:47:57;7.43;;;3.53;;
12896;SDS011;6516;35.028;32.372;2023-01-15T15:50:42;7.75;;;4.35;;
12896;SDS011;6516;35.028;32.372;2023-01-15T15:53:15;7.88;;;4.30;;